createdAt,value
2018-09-28T00:01:24.188Z,12.10
2018-09-28T00:03:51.698Z,12.00
2018-09-28T00:06:19.248Z,12.00
2018-09-28T00:08:46.812Z,12.10
2018-09-28T00:11:14.334Z,12.10
2018-09-28T00:13:41.866Z,12.10
2018-09-28T00:16:09.381Z,12.10
2018-09-28T00:18:36.923Z,12.10
2018-09-28T00:21:04.651Z,12.10
2018-09-28T00:23:32.188Z,12.10
2018-09-28T00:25:59.789Z,12.00
2018-09-28T00:28:27.322Z,12.10
2018-09-28T00:30:54.848Z,12.10
2018-09-28T00:33:22.385Z,12.10
2018-09-28T00:35:49.894Z,12.10
2018-09-28T00:38:17.534Z,12.10
2018-09-28T00:40:45.069Z,12.00
2018-09-28T00:43:12.571Z,12.00
2018-09-28T00:45:40.117Z,12.10
2018-09-28T00:48:07.868Z,12.10
2018-09-28T00:50:35.390Z,12.10
2018-09-28T00:53:03.001Z,12.10
2018-09-28T00:55:30.768Z,12.10
2018-09-28T00:57:58.316Z,12.10
2018-09-28T01:00:25.863Z,12.10
2018-09-28T01:02:53.397Z,12.10
2018-09-28T01:05:20.934Z,12.20
2018-09-28T01:07:48.512Z,12.30
2018-09-28T01:10:16.045Z,12.30
2018-09-28T01:12:43.587Z,12.40
2018-09-28T01:15:11.107Z,12.40
2018-09-28T01:17:38.657Z,12.50
2018-09-28T01:20:06.219Z,12.60
2018-09-28T01:22:33.866Z,12.60
2018-09-28T01:25:01.415Z,12.60
2018-09-28T01:27:28.991Z,12.60
2018-09-28T01:29:56.583Z,12.70
2018-09-28T01:32:24.119Z,12.70
2018-09-28T01:34:51.650Z,12.80
2018-09-28T01:37:19.213Z,12.70
2018-09-28T01:39:46.730Z,12.70
2018-09-28T01:42:14.505Z,12.60
2018-09-28T01:44:42.050Z,12.50
2018-09-28T01:47:09.575Z,12.50
2018-09-28T01:49:37.118Z,12.50
2018-09-28T01:52:04.685Z,12.50
2018-09-28T01:54:32.235Z,12.50
2018-09-28T01:56:59.789Z,12.50
2018-09-28T01:59:27.305Z,12.50
2018-09-28T02:01:55.009Z,12.50
2018-09-28T02:04:22.519Z,12.40
2018-09-28T02:06:50.087Z,12.40
2018-09-28T02:09:17.633Z,12.40
2018-09-28T02:11:45.185Z,12.40
2018-09-28T02:14:12.765Z,12.40
2018-09-28T02:16:40.332Z,12.40
2018-09-28T02:19:07.886Z,12.40
2018-09-28T02:21:35.405Z,12.40
2018-09-28T02:24:03.053Z,12.40
2018-09-28T02:26:30.627Z,12.50
2018-09-28T02:28:58.147Z,12.50
2018-09-28T02:31:25.686Z,12.40
2018-09-28T02:33:53.221Z,12.40
2018-09-28T02:36:20.754Z,12.40
2018-09-28T02:38:48.290Z,12.40
2018-09-28T02:41:15.817Z,12.40
2018-09-28T02:43:43.346Z,12.40
2018-09-28T02:46:10.897Z,12.40
2018-09-28T02:48:38.459Z,12.30
2018-09-28T02:51:06.388Z,12.30
2018-09-28T02:53:33.961Z,12.30
2018-09-28T02:56:01.498Z,12.20
2018-09-28T02:58:28.997Z,12.30
2018-09-28T03:00:56.563Z,12.30
2018-09-28T03:03:30.738Z,12.30
2018-09-28T03:05:58.298Z,12.40
2018-09-28T03:08:25.809Z,12.30
2018-09-28T03:10:53.358Z,12.20
2018-09-28T03:13:20.849Z,12.20
2018-09-28T03:15:48.595Z,12.20
2018-09-28T03:18:16.110Z,12.20
2018-09-28T03:20:43.637Z,12.20
2018-09-28T03:23:11.181Z,12.20
2018-09-28T03:25:38.714Z,12.20
2018-09-28T03:28:06.243Z,12.20
2018-09-28T03:30:34.147Z,12.10
2018-09-28T03:33:01.671Z,12.10
2018-09-28T03:35:29.195Z,12.10
2018-09-28T03:37:56.726Z,12.10
2018-09-28T03:40:24.342Z,12.10
2018-09-28T03:42:51.820Z,12.10
2018-09-28T03:45:19.378Z,12.20
2018-09-28T03:47:48.211Z,12.20
2018-09-28T03:50:15.860Z,12.20
2018-09-28T03:52:43.635Z,12.20
2018-09-28T03:55:11.519Z,12.10
2018-09-28T03:57:39.080Z,12.20
2018-09-28T04:00:07.576Z,12.20
2018-09-28T04:02:35.095Z,12.20
2018-09-28T04:05:02.702Z,12.20
2018-09-28T04:07:30.225Z,12.20
2018-09-28T04:09:57.778Z,12.40
2018-09-28T04:12:25.288Z,12.50
2018-09-28T04:14:52.847Z,12.60
2018-09-28T04:17:20.330Z,12.70
2018-09-28T04:19:48.093Z,12.80
2018-09-28T04:22:15.615Z,12.90
2018-09-28T04:24:43.157Z,13.00
2018-09-28T04:27:10.695Z,13.10
2018-09-28T04:29:38.274Z,13.20
2018-09-28T04:32:05.805Z,13.30
2018-09-28T04:34:33.394Z,13.30
2018-09-28T04:37:00.917Z,13.30
2018-09-28T04:39:28.436Z,13.40
2018-09-28T04:41:56.024Z,13.40
2018-09-28T04:44:23.588Z,13.40
2018-09-28T04:46:51.111Z,13.40
2018-09-28T04:49:18.726Z,13.50
2018-09-28T04:51:46.418Z,13.50
2018-09-28T04:54:13.963Z,13.60
2018-09-28T04:56:41.520Z,13.60
2018-09-28T04:59:09.098Z,13.70
2018-09-28T05:01:36.615Z,13.70
2018-09-28T05:04:04.155Z,13.80
2018-09-28T05:06:31.764Z,13.80
2018-09-28T05:08:59.636Z,13.90
2018-09-28T05:11:27.209Z,14.00
2018-09-28T05:13:54.729Z,14.00
2018-09-28T05:16:22.280Z,14.00
2018-09-28T05:18:50.007Z,14.10
2018-09-28T05:21:17.554Z,14.10
2018-09-28T05:23:45.166Z,14.10
2018-09-28T05:26:12.691Z,14.20
2018-09-28T05:28:40.202Z,14.20
2018-09-28T05:31:07.944Z,14.20
2018-09-28T05:33:35.506Z,14.30
2018-09-28T05:36:03.043Z,14.30
2018-09-28T05:38:30.687Z,14.30
2018-09-28T05:40:58.248Z,14.40
2018-09-28T05:43:25.769Z,14.40
2018-09-28T05:45:53.469Z,14.50
2018-09-28T05:48:20.973Z,14.50
2018-09-28T05:50:48.493Z,14.50
2018-09-28T05:53:16.223Z,14.50
2018-09-28T05:55:43.779Z,14.60
2018-09-28T05:58:16.969Z,14.60
2018-09-28T06:00:50.105Z,14.60
2018-09-28T06:03:19.815Z,14.60
2018-09-28T06:05:53.009Z,14.70
2018-09-28T06:08:20.607Z,14.70
2018-09-28T06:10:48.457Z,14.70
2018-09-28T06:13:16.117Z,14.70
2018-09-28T06:15:43.671Z,14.70
2018-09-28T06:18:11.267Z,14.80
2018-09-28T06:20:38.894Z,14.80
2018-09-28T06:23:06.408Z,14.80
2018-09-28T06:25:34.028Z,14.90
2018-09-28T06:28:02.777Z,14.90
2018-09-28T06:30:30.448Z,14.80
2018-09-28T06:32:58.041Z,14.90
2018-09-28T06:35:25.563Z,14.90
2018-09-28T06:37:53.205Z,14.90
2018-09-28T06:40:20.735Z,15.00
2018-09-28T06:42:48.285Z,15.00
2018-09-28T06:45:15.881Z,15.00
2018-09-28T06:47:43.540Z,15.10
2018-09-28T06:50:11.136Z,15.10
2018-09-28T06:52:38.674Z,15.20
2018-09-28T06:55:06.249Z,15.30
2018-09-28T06:57:35.211Z,15.30
2018-09-28T07:00:03.022Z,15.30
2018-09-28T07:02:30.651Z,15.40
2018-09-28T07:04:58.203Z,15.50
2018-09-28T07:07:25.766Z,15.60
2018-09-28T07:09:53.281Z,15.60
2018-09-28T07:12:20.860Z,15.70
2018-09-28T07:14:48.421Z,15.70
2018-09-28T07:17:15.979Z,15.70
2018-09-28T07:19:43.493Z,15.80
2018-09-28T07:22:11.292Z,15.80
2018-09-28T07:24:38.918Z,15.90
2018-09-28T07:27:06.403Z,15.90
2018-09-28T07:29:33.966Z,15.90
2018-09-28T07:32:01.549Z,15.90
2018-09-28T07:34:34.625Z,16.00
2018-09-28T07:37:02.320Z,16.00
2018-09-28T07:39:29.745Z,16.00
2018-09-28T07:41:57.389Z,16.00
2018-09-28T07:44:24.827Z,16.00
2018-09-28T07:46:52.393Z,16.00
2018-09-28T07:49:19.960Z,16.10
2018-09-28T07:51:47.489Z,16.20
2018-09-28T07:54:14.987Z,16.20
2018-09-28T07:56:42.535Z,16.20
2018-09-28T07:59:10.131Z,16.30
2018-09-28T08:01:37.658Z,16.40
2018-09-28T08:04:05.272Z,16.50
2018-09-28T08:06:32.894Z,16.50
2018-09-28T08:09:00.455Z,16.50
2018-09-28T08:11:28.022Z,16.50
2018-09-28T08:13:55.562Z,16.50
2018-09-28T08:16:23.153Z,16.60
2018-09-28T08:18:50.728Z,16.70
2018-09-28T08:21:18.279Z,16.80
2018-09-28T08:23:45.886Z,16.70
2018-09-28T08:26:13.652Z,16.70
2018-09-28T08:28:41.205Z,16.70
2018-09-28T08:31:08.790Z,16.70
2018-09-28T08:33:36.343Z,16.70
2018-09-28T08:36:03.911Z,16.80
2018-09-28T08:38:31.630Z,16.80
2018-09-28T08:40:59.181Z,16.90
2018-09-28T08:43:26.780Z,16.90
2018-09-28T08:45:54.270Z,16.90
2018-09-28T08:48:21.844Z,17.00
2018-09-28T08:50:49.381Z,17.00
2018-09-28T08:53:16.965Z,17.10
2018-09-28T08:55:44.556Z,17.10
2018-09-28T08:58:12.117Z,17.00
2018-09-28T09:00:39.719Z,16.80
2018-09-28T09:03:07.231Z,16.90
2018-09-28T09:05:34.825Z,17.00
2018-09-28T09:08:02.364Z,17.10
2018-09-28T09:10:29.990Z,17.10
2018-09-28T09:12:57.520Z,17.20
2018-09-28T09:15:25.074Z,17.20
2018-09-28T09:17:52.660Z,17.30
2018-09-28T09:20:20.195Z,17.20
2018-09-28T09:22:47.716Z,17.10
2018-09-28T09:25:15.229Z,16.90
2018-09-28T09:27:42.996Z,16.60
2018-09-28T09:30:10.573Z,16.60
2018-09-28T09:32:38.113Z,16.50
2018-09-28T09:35:05.714Z,16.50
2018-09-28T09:37:33.426Z,16.50
2018-09-28T09:40:01.026Z,16.60
2018-09-28T09:42:28.551Z,16.60
2018-09-28T09:44:56.054Z,16.80
2018-09-28T09:47:23.918Z,17.00
2018-09-28T09:49:51.457Z,16.90
2018-09-28T09:52:19.032Z,17.10
2018-09-28T09:54:46.562Z,17.30
2018-09-28T09:57:14.098Z,17.30
2018-09-28T09:59:41.640Z,17.30
2018-09-28T10:02:14.690Z,17.10
2018-09-28T10:04:42.228Z,17.10
2018-09-28T10:07:09.784Z,17.30
2018-09-28T10:09:37.331Z,17.60
2018-09-28T10:12:04.858Z,17.70
2018-09-28T10:14:32.424Z,17.70
2018-09-28T10:16:59.970Z,17.70
2018-09-28T10:19:27.600Z,17.70
2018-09-28T10:21:55.111Z,17.70
2018-09-28T10:24:23.628Z,17.70
2018-09-28T10:26:51.153Z,17.70
2018-09-28T10:29:18.724Z,17.60
2018-09-28T10:31:46.260Z,17.60
2018-09-28T10:34:13.876Z,17.90
2018-09-28T10:36:41.537Z,18.10
2018-09-28T10:39:09.435Z,18.00
2018-09-28T10:41:36.952Z,17.90
2018-09-28T10:44:04.688Z,17.80
2018-09-28T10:46:32.260Z,17.50
2018-09-28T10:48:59.796Z,17.30
2018-09-28T10:51:27.429Z,17.20
2018-09-28T10:53:54.880Z,17.20
2018-09-28T10:56:22.424Z,17.20
2018-09-28T10:58:50.053Z,17.30
2018-09-28T11:01:17.564Z,17.30
2018-09-28T11:03:45.188Z,17.30
2018-09-28T11:06:12.712Z,17.40
2018-09-28T11:08:40.284Z,17.50
2018-09-28T11:11:07.865Z,17.80
2018-09-28T11:13:35.463Z,18.30
2018-09-28T11:16:02.991Z,19.20
2018-09-28T11:18:30.517Z,19.80
2018-09-28T11:20:58.350Z,20.00
2018-09-28T11:23:25.990Z,19.90
2018-09-28T11:25:53.529Z,19.70
2018-09-28T11:28:21.091Z,19.70
2018-09-28T11:30:48.680Z,19.90
2018-09-28T11:33:16.313Z,19.60
2018-09-28T11:35:43.835Z,19.80
2018-09-28T11:38:11.552Z,19.90
2018-09-28T11:40:39.110Z,19.80
2018-09-28T11:43:06.726Z,19.90
2018-09-28T11:45:34.313Z,19.70
2018-09-28T11:48:01.830Z,19.70
2018-09-28T11:50:29.419Z,20.20
2018-09-28T11:52:56.966Z,20.80
2018-09-28T11:55:24.484Z,21.50
2018-09-28T11:57:52.107Z,22.80
2018-09-28T12:00:19.693Z,23.30
2018-09-28T12:02:47.215Z,23.70
2018-09-28T12:05:14.792Z,24.50
2018-09-28T12:07:42.355Z,25.00
2018-09-28T12:10:09.935Z,25.40
2018-09-28T12:12:37.517Z,25.50
2018-09-28T12:15:05.125Z,25.50
2018-09-28T12:17:32.683Z,25.60
2018-09-28T12:20:00.211Z,25.50
2018-09-28T12:22:27.779Z,25.00
2018-09-28T12:24:55.385Z,24.50
2018-09-28T12:27:23.029Z,24.20
2018-09-28T12:29:50.535Z,23.50
2018-09-28T12:32:18.135Z,23.60
2018-09-28T12:34:45.793Z,23.30
2018-09-28T12:37:13.359Z,23.20
2018-09-28T12:39:41.069Z,23.10
2018-09-28T12:42:08.540Z,23.20
2018-09-28T12:44:36.148Z,23.30
2018-09-28T12:47:03.688Z,23.20
2018-09-28T12:49:31.249Z,24.00
2018-09-28T12:51:58.819Z,23.80
2018-09-28T12:54:26.452Z,23.60
2018-09-28T12:56:53.959Z,23.60
2018-09-28T12:59:21.526Z,22.90
2018-09-28T13:01:49.103Z,23.30
2018-09-28T13:04:17.795Z,23.70
2018-09-28T13:06:47.046Z,23.60
2018-09-28T13:09:14.454Z,23.70
2018-09-28T13:11:42.017Z,23.60
2018-09-28T13:14:09.719Z,24.10
2018-09-28T13:16:37.477Z,24.80
2018-09-28T13:19:05.132Z,25.40
2018-09-28T13:21:32.693Z,25.70
2018-09-28T13:24:00.318Z,26.00
2018-09-28T13:26:27.911Z,26.40
2018-09-28T13:28:55.469Z,27.00
2018-09-28T13:31:23.336Z,27.70
2018-09-28T13:33:50.858Z,27.90
2018-09-28T13:36:18.464Z,28.30
2018-09-28T13:38:46.509Z,27.90
2018-09-28T13:41:14.047Z,28.40
2018-09-28T13:43:41.581Z,28.30
2018-09-28T13:46:09.184Z,28.20
2018-09-28T13:48:36.747Z,28.20
2018-09-28T13:51:04.355Z,28.50
2018-09-28T13:53:31.931Z,28.70
2018-09-28T13:55:59.493Z,29.00
2018-09-28T13:58:27.151Z,29.20
2018-09-28T14:00:54.600Z,28.80
2018-09-28T14:03:22.183Z,28.40
2018-09-28T14:05:49.845Z,28.40
2018-09-28T14:08:17.451Z,28.20
2018-09-28T14:10:45.045Z,28.80
2018-09-28T14:13:12.918Z,29.40
2018-09-28T14:15:40.450Z,29.30
2018-09-28T14:18:08.102Z,29.90
2018-09-28T14:20:36.085Z,30.40
2018-09-28T14:23:03.570Z,31.00
2018-09-28T14:25:31.254Z,31.00
2018-09-28T14:27:58.857Z,31.00
2018-09-28T14:30:26.417Z,31.10
2018-09-28T14:32:53.959Z,30.50
2018-09-28T14:35:21.792Z,28.80
2018-09-28T14:37:49.314Z,27.60
2018-09-28T14:40:16.954Z,27.40
2018-09-28T14:42:44.577Z,28.40
2018-09-28T14:45:12.130Z,29.10
2018-09-28T14:47:39.686Z,29.00
2018-09-28T14:50:07.275Z,28.40
2018-09-28T14:52:34.882Z,27.70
2018-09-28T14:55:02.458Z,26.80
2018-09-28T14:57:30.075Z,25.80
2018-09-28T14:59:57.576Z,24.90
2018-09-28T15:02:25.205Z,24.50
2018-09-28T15:04:52.688Z,25.20
2018-09-28T15:07:20.227Z,26.40
2018-09-28T15:09:47.750Z,27.30
2018-09-28T15:12:15.353Z,27.90
2018-09-28T15:14:42.924Z,27.90
2018-09-28T15:17:10.467Z,28.60
2018-09-28T15:19:38.038Z,28.40
2018-09-28T15:22:05.682Z,27.30
2018-09-28T15:24:34.394Z,26.30
2018-09-28T15:27:01.956Z,25.40
2018-09-28T15:29:29.550Z,26.10
2018-09-28T15:31:57.054Z,26.00
2018-09-28T15:34:24.564Z,25.90
2018-09-28T15:36:52.146Z,26.20
2018-09-28T15:39:19.760Z,26.60
2018-09-28T15:41:47.282Z,27.40
2018-09-28T15:44:14.828Z,27.40
2018-09-28T15:46:42.372Z,27.40
2018-09-28T15:49:09.889Z,27.60
2018-09-28T15:51:37.488Z,28.20
2018-09-28T15:54:05.030Z,27.30
2018-09-28T15:56:32.606Z,27.00
2018-09-28T15:59:00.233Z,26.20
2018-09-28T16:01:27.808Z,25.20
2018-09-28T16:03:55.381Z,24.50
2018-09-28T16:06:22.916Z,23.80
2018-09-28T16:08:50.414Z,23.10
2018-09-28T16:11:18.035Z,23.20
2018-09-28T16:13:45.594Z,23.70
2018-09-28T16:16:13.138Z,24.70
2018-09-28T16:18:41.898Z,25.20
2018-09-28T16:21:09.400Z,25.50
2018-09-28T16:23:37.424Z,25.70
2018-09-28T16:26:05.206Z,25.90
2018-09-28T16:28:32.770Z,25.90
2018-09-28T16:31:00.385Z,25.90
2018-09-28T16:33:28.030Z,26.10
2018-09-28T16:35:55.587Z,26.30
2018-09-28T16:38:23.140Z,26.50
2018-09-28T16:40:50.682Z,26.30
2018-09-28T16:43:18.546Z,26.10
2018-09-28T16:45:46.185Z,26.30
2018-09-28T16:48:13.696Z,26.00
2018-09-28T16:50:41.259Z,25.30
2018-09-28T16:53:08.858Z,24.90
2018-09-28T16:55:36.373Z,24.70
2018-09-28T16:58:03.927Z,24.60
2018-09-28T17:00:31.509Z,24.40
2018-09-28T17:02:59.039Z,23.60
2018-09-28T17:05:26.605Z,22.60
2018-09-28T17:07:54.175Z,22.10
2018-09-28T17:10:21.847Z,21.70
2018-09-28T17:12:49.678Z,21.10
2018-09-28T17:15:17.294Z,20.50
2018-09-28T17:17:44.835Z,20.30
2018-09-28T17:20:12.480Z,20.10
2018-09-28T17:22:40.010Z,19.90
2018-09-28T17:25:07.716Z,19.70
2018-09-28T17:27:35.559Z,19.20
2018-09-28T17:30:03.212Z,18.90
2018-09-28T17:32:30.854Z,18.70
2018-09-28T17:34:58.442Z,18.60
2018-09-28T17:37:25.925Z,18.40
2018-09-28T17:39:53.454Z,18.30
2018-09-28T17:42:21.070Z,18.20
2018-09-28T17:44:48.662Z,18.10
2018-09-28T17:47:16.504Z,17.80
2018-09-28T17:49:44.038Z,17.60
2018-09-28T17:52:11.609Z,17.40
2018-09-28T17:54:39.124Z,17.30
2018-09-28T17:57:06.977Z,17.20
2018-09-28T17:59:34.502Z,17.10
2018-09-28T18:02:02.091Z,17.00
2018-09-28T18:04:29.651Z,16.80
2018-09-28T18:06:57.225Z,16.60
2018-09-28T18:09:24.777Z,16.50
2018-09-28T18:11:52.323Z,16.40
2018-09-28T18:14:19.995Z,16.30
2018-09-28T18:16:47.511Z,16.30
2018-09-28T18:19:15.087Z,16.20
2018-09-28T18:21:42.717Z,16.20
2018-09-28T18:24:10.255Z,16.10
2018-09-28T18:26:37.775Z,16.00
2018-09-28T18:29:05.319Z,15.90
2018-09-28T18:31:32.847Z,15.80
2018-09-28T18:34:00.425Z,15.80
2018-09-28T18:36:27.971Z,15.70
2018-09-28T18:38:55.588Z,15.60
2018-09-28T18:41:23.197Z,15.60
2018-09-28T18:43:50.760Z,15.60
2018-09-28T18:46:18.560Z,15.50
2018-09-28T18:48:47.214Z,15.40
2018-09-28T18:51:15.144Z,15.20
2018-09-28T18:53:42.763Z,15.10
2018-09-28T18:56:10.480Z,15.00
2018-09-28T18:58:38.492Z,14.90
2018-09-28T19:01:06.415Z,14.80
2018-09-28T19:03:33.974Z,14.90
2018-09-28T19:06:01.599Z,14.80
2018-09-28T19:08:29.206Z,14.70
2018-09-28T19:10:56.920Z,14.70
2018-09-28T19:13:24.801Z,14.60
2018-09-28T19:15:52.466Z,14.70
2018-09-28T19:18:20.329Z,14.50
2018-09-28T19:20:47.887Z,14.40
2018-09-28T19:23:15.503Z,14.30
2018-09-28T19:25:43.358Z,14.30
2018-09-28T19:28:11.013Z,14.20
2018-09-28T19:30:39.031Z,14.20
2018-09-28T19:33:06.652Z,14.20
2018-09-28T19:35:34.434Z,14.20
2018-09-28T19:38:02.018Z,14.10
2018-09-28T19:40:29.577Z,14.10
2018-09-28T19:42:57.159Z,14.00
2018-09-28T19:45:24.721Z,13.90
2018-09-28T19:47:52.320Z,13.90
2018-09-28T19:50:19.886Z,14.00
2018-09-28T19:52:47.488Z,13.80
2018-09-28T19:55:15.153Z,13.80
2018-09-28T19:57:42.708Z,13.70
2018-09-28T20:00:10.286Z,13.80
2018-09-28T20:02:37.947Z,13.70
2018-09-28T20:05:05.514Z,13.70
2018-09-28T20:07:33.425Z,13.70
2018-09-28T20:10:01.155Z,13.70
2018-09-28T20:12:28.945Z,13.60
2018-09-28T20:14:56.561Z,13.70
2018-09-28T20:17:24.369Z,13.60
2018-09-28T20:19:51.954Z,13.60
2018-09-28T20:22:19.856Z,13.50
2018-09-28T20:24:47.592Z,13.50
2018-09-28T20:27:15.226Z,13.40
2018-09-28T20:29:43.040Z,13.40
2018-09-28T20:32:10.826Z,13.30
2018-09-28T20:34:39.329Z,13.30
2018-09-28T20:37:07.154Z,13.30
2018-09-28T20:39:34.908Z,13.20
2018-09-28T20:42:03.436Z,13.20
2018-09-28T20:44:31.529Z,13.00
2018-09-28T20:46:59.638Z,13.00
2018-09-28T20:49:27.804Z,13.00
2018-09-28T20:51:55.482Z,12.90
2018-09-28T20:54:23.218Z,12.90
2018-09-28T20:56:50.862Z,12.80
2018-09-28T21:01:55.730Z,12.80
2018-09-28T21:04:23.378Z,12.70
2018-09-28T21:06:51.078Z,12.70
2018-09-28T21:09:18.865Z,12.70
2018-09-28T21:11:46.536Z,12.70
2018-09-28T21:14:14.145Z,12.70
2018-09-28T21:16:41.866Z,12.60
2018-09-28T21:19:09.643Z,12.60
2018-09-28T21:21:37.440Z,12.60
2018-09-28T21:24:05.087Z,12.60
2018-09-28T21:26:32.755Z,12.50
2018-09-28T21:29:00.297Z,12.50
2018-09-28T21:31:27.961Z,12.40
2018-09-28T21:33:55.539Z,12.40
2018-09-28T21:36:23.099Z,12.30
2018-09-28T21:38:50.657Z,12.20
2018-09-28T21:41:18.259Z,12.30
2018-09-28T21:43:45.839Z,12.20
2018-09-28T21:46:13.367Z,12.20
2018-09-28T21:48:40.941Z,12.20
2018-09-28T21:51:08.473Z,12.20
2018-09-28T21:53:36.011Z,12.20
2018-09-28T21:56:03.619Z,12.10
2018-09-28T21:58:31.187Z,12.10
2018-09-28T22:00:58.732Z,12.10
2018-09-28T22:03:26.329Z,12.00
2018-09-28T22:05:53.869Z,12.00
2018-09-28T22:08:21.391Z,12.00
2018-09-28T22:10:49.281Z,12.00
2018-09-28T22:13:16.817Z,12.00
2018-09-28T22:15:44.399Z,11.90
2018-09-28T22:18:12.027Z,11.90
2018-09-28T22:20:39.573Z,11.80
2018-09-28T22:23:07.577Z,11.80
2018-09-28T22:25:35.113Z,11.80
2018-09-28T22:28:02.643Z,11.80
2018-09-28T22:30:30.525Z,11.80
2018-09-28T22:32:58.367Z,11.70
2018-09-28T22:35:25.999Z,11.60
2018-09-28T22:37:53.540Z,11.60
2018-09-28T22:40:21.332Z,11.60
2018-09-28T22:42:48.938Z,11.60
2018-09-28T22:45:16.493Z,11.60
2018-09-28T22:47:44.237Z,11.50
2018-09-28T22:50:11.753Z,11.50
2018-09-28T22:52:39.424Z,11.50
2018-09-28T22:55:07.376Z,11.40
2018-09-28T22:57:35.257Z,11.40
2018-09-28T23:00:02.905Z,11.40
2018-09-28T23:02:30.517Z,11.40
2018-09-28T23:04:58.147Z,11.30
2018-09-28T23:07:25.667Z,11.30
2018-09-28T23:10:00.066Z,11.30
2018-09-28T23:12:27.617Z,11.30
2018-09-28T23:14:55.149Z,11.30
2018-09-28T23:17:22.711Z,11.20
2018-09-28T23:19:50.225Z,11.10
2018-09-28T23:22:17.785Z,11.10
2018-09-28T23:24:45.625Z,11.10
2018-09-28T23:27:13.189Z,11.10
2018-09-28T23:29:40.741Z,11.00
2018-09-28T23:32:08.288Z,11.00
2018-09-28T23:34:35.907Z,11.00
2018-09-28T23:37:03.498Z,10.90
2018-09-28T23:39:31.314Z,10.90
2018-09-28T23:41:58.867Z,10.90
2018-09-28T23:44:26.448Z,10.90
2018-09-28T23:46:54.033Z,10.90
2018-09-28T23:49:21.588Z,10.80
2018-09-28T23:51:49.663Z,10.80
2018-09-28T23:54:17.224Z,10.80
2018-09-28T23:56:44.731Z,10.80
2018-09-28T23:59:12.369Z,10.70
